Time;durP1;ratioP1;P1;durP2;ratioP2;P2;SDS_P1;SDS_P2;PMS_P1;PMS_P2;Temp;Humidity;BMP_temperature;BMP_pressure;BME280_temperature;BME280_humidity;BME280_pressure;Samples;Min_cycle;Max_cycle;Signal;HPM_P1;HPM_P2
2022/03/19 00:00:45;;;;;;;38.80;30.37;;;;;;;9.78;52.49;100295.34;8318692;28;20233;-62
2022/03/19 00:04:49;;;;;;;37.27;29.90;;;;;;;9.81;52.47;100292.75;8319028;28;20332;-62
2022/03/19 00:08:53;;;;;;;40.97;30.03;;;;;;;9.83;52.26;100290.16;8318579;28;20415;-62
2022/03/19 00:12:58;;;;;;;39.87;31.13;;;;;;;9.74;52.93;100291.03;8318403;28;20232;-62
2022/03/19 00:17:01;;;;;;;39.00;31.30;;;;;;;9.61;52.97;100287.63;8318787;28;20409;-62
2022/03/19 00:21:04;;;;;;;41.00;30.97;;;;;;;9.73;52.82;100289.34;8318451;28;20550;-62
2022/03/19 00:25:10;;;;;;;44.30;31.57;;;;;;;9.63;53.10;100287.63;8318319;28;20239;-62
2022/03/19 00:29:15;;;;;;;40.53;30.83;;;;;;;9.65;52.99;100281.56;8318646;28;20235;-62
2022/03/19 00:33:17;;;;;;;37.37;30.97;;;;;;;9.68;52.81;100284.16;8318245;28;20247;-62
2022/03/19 00:37:20;;;;;;;41.67;31.17;;;;;;;9.69;53.00;100275.56;8317464;28;20416;-62
2022/03/19 00:41:23;;;;;;;37.03;31.30;;;;;;;9.70;52.79;100277.25;8317860;28;20243;-62
2022/03/19 00:45:28;;;;;;;39.67;31.70;;;;;;;9.71;52.41;100270.34;8317776;28;20601;-62
2022/03/19 00:49:31;;;;;;;40.17;32.57;;;;;;;9.56;52.94;100266.13;8316744;28;20237;-63
2022/03/19 00:53:34;;;;;;;46.13;33.27;;;;;;;9.54;52.92;100270.44;8317455;28;20247;-62
2022/03/19 00:57:42;;;;;;;37.13;31.60;;;;;;;9.56;53.06;100268.69;8317237;28;20241;-62
2022/03/19 01:01:46;;;;;;;40.40;31.43;;;;;;;9.53;53.11;100261.78;8317046;28;20521;-62
2022/03/19 01:05:49;;;;;;;39.60;31.93;;;;;;;9.51;53.12;100260.09;8317139;28;20237;-62
2022/03/19 01:09:52;;;;;;;40.60;32.13;;;;;;;9.47;52.92;100261.81;8316625;28;20237;-62
2022/03/19 01:13:56;;;;;;;40.37;32.23;;;;;;;9.45;52.93;100260.13;8316878;28;20243;-62
2022/03/19 01:18:01;;;;;;;38.97;31.23;;;;;;;9.40;53.16;100254.94;8316851;28;20267;-62
2022/03/19 01:22:04;;;;;;;40.80;31.77;;;;;;;9.40;53.12;100254.94;8316518;28;20243;-62
2022/03/19 01:26:07;;;;;;;41.10;31.10;;;;;;;9.45;52.96;100255.78;8315432;28;20265;-62
2022/03/19 01:30:12;;;;;;;39.63;32.33;;;;;;;9.30;53.30;100259.28;8316204;28;20240;-61
2022/03/19 01:34:16;;;;;;;36.10;29.97;;;;;;;9.38;53.55;100254.09;8316603;28;20409;-62
2022/03/19 01:38:19;;;;;;;44.50;31.97;;;;;;;9.31;53.27;100248.09;8316218;28;20237;-62
2022/03/19 01:42:24;;;;;;;39.10;31.73;;;;;;;9.32;53.33;100248.94;8316153;28;20244;-61
2022/03/19 01:46:26;;;;;;;41.50;31.67;;;;;;;9.30;53.41;100241.19;8318245;28;20397;-61
2022/03/19 01:50:31;;;;;;;36.83;31.43;;;;;;;9.31;53.11;100242.91;8318278;28;20526;-61
2022/03/19 01:54:36;;;;;;;38.30;31.43;;;;;;;9.31;53.15;100237.75;8317736;28;20208;-62
2022/03/19 01:58:40;;;;;;;40.40;31.03;;;;;;;9.24;52.91;100232.59;8317687;28;20272;-62
2022/03/19 02:02:43;;;;;;;38.60;31.10;;;;;;;9.17;53.03;100227.41;8317735;28;20370;-61
2022/03/19 02:06:48;;;;;;;40.07;31.87;;;;;;;9.10;53.00;100228.31;8315699;28;20238;-62
2022/03/19 02:10:51;;;;;;;38.97;31.33;;;;;;;9.16;52.99;100225.72;8314886;28;20245;-61
2022/03/19 02:14:57;;;;;;;38.83;31.20;;;;;;;9.11;52.63;100218.84;8315288;28;20463;-62
2022/03/19 02:19:00;;;;;;;40.50;31.90;;;;;;;8.99;53.00;100219.72;8315361;28;20256;-62
2022/03/19 02:27:25;;;;;;;44.03;31.20;;;;;;;8.98;53.03;100203.34;8315203;28;20432;-62
2022/03/19 02:31:28;;;;;;;42.30;32.60;;;;;;;8.96;52.89;100204.22;8314883;28;20421;-62
2022/03/19 02:35:31;;;;;;;37.27;31.33;;;;;;;8.90;53.07;100205.09;8314099;28;20264;-63
2022/03/19 02:39:36;;;;;;;40.37;32.23;;;;;;;8.80;52.92;100200.81;8314780;28;20546;-62
2022/03/19 02:43:39;;;;;;;42.30;32.03;;;;;;;8.78;52.98;100203.38;8314890;28;20539;-62
2022/03/19 02:51:59;;;;;;;36.77;31.40;;;;;;;8.76;52.36;100186.19;8314687;28;20233;-62
2022/03/19 02:56:03;;;;;;;40.03;32.30;;;;;;;8.74;52.76;100193.06;8314581;28;20233;-62
2022/03/19 03:00:08;;;;;;;38.17;32.57;;;;;;;8.60;52.83;100178.44;8314773;28;20232;-63
2022/03/19 03:04:11;;;;;;;42.43;32.73;;;;;;;8.66;52.73;100180.13;8314304;28;20236;-62
2022/03/19 03:08:15;;;;;;;39.70;31.80;;;;;;;8.60;52.92;100175.88;8314195;28;20248;-63
2022/03/19 03:12:19;;;;;;;37.83;31.60;;;;;;;8.56;52.97;100171.53;8314583;28;20237;-63
2022/03/19 03:16:22;;;;;;;44.37;34.67;;;;;;;8.52;53.49;100167.25;8314562;28;20244;-62
2022/03/19 03:20:25;;;;;;;41.80;32.47;;;;;;;8.60;53.41;100175.88;8314617;28;20412;-62
2022/03/19 03:24:29;;;;;;;42.47;34.20;;;;;;;8.53;53.34;100170.69;8314155;28;20233;-62
2022/03/19 03:28:33;;;;;;;44.17;33.03;;;;;;;8.52;53.17;100164.66;8313875;28;20252;-62
2022/03/19 03:32:36;;;;;;;41.93;33.87;;;;;;;8.52;53.21;100167.25;8314611;28;20233;-63
2022/03/19 03:36:39;;;;;;;43.20;34.70;;;;;;;8.39;54.05;100162.91;8313648;28;20278;-62
2022/03/19 03:40:42;;;;;;;42.93;35.23;;;;;;;8.45;53.37;100165.53;8314074;28;20248;-62
2022/03/19 03:44:47;;;;;;;41.30;33.20;;;;;;;8.52;53.49;100164.66;8313939;28;20237;-62
2022/03/19 03:48:50;;;;;;;44.07;33.87;;;;;;;8.41;53.37;100161.19;8318180;28;20240;-62
2022/03/19 03:52:53;;;;;;;40.27;33.63;;;;;;;8.50;53.45;100158.63;8319379;28;20224;-62
2022/03/19 03:56:56;;;;;;;40.47;34.47;;;;;;;8.37;53.82;100152.59;8319258;28;20245;-62
2022/03/19 04:01:00;;;;;;;39.27;33.33;;;;;;;8.44;53.58;100157.81;8319455;28;20235;-62
2022/03/19 04:05:04;;;;;;;43.17;32.57;;;;;;;8.45;53.63;100156.91;8318741;28;20233;-62
2022/03/19 04:09:07;;;;;;;41.93;34.33;;;;;;;8.45;53.26;100150.03;8318584;28;20252;-62
2022/03/19 04:13:10;;;;;;;45.83;34.60;;;;;;;8.34;53.51;100143.97;8318967;28;20236;-62
2022/03/19 04:17:14;;;;;;;40.37;35.00;;;;;;;8.42;53.50;100142.31;8318982;28;20240;-62
2022/03/19 04:21:17;;;;;;;43.57;35.83;;;;;;;8.35;53.88;100143.97;8311507;28;20562;-62
2022/03/19 04:25:22;;;;;;;44.37;35.17;;;;;;;8.40;53.93;100150.00;8286051;28;20248;-62
2022/03/19 04:29:25;;;;;;;42.27;34.80;;;;;;;8.46;53.76;100141.44;8286311;28;20240;-62
2022/03/19 04:33:29;;;;;;;42.53;34.57;;;;;;;8.45;54.00;100144.88;8286047;28;20618;-62
2022/03/19 04:37:32;;;;;;;40.20;33.10;;;;;;;8.50;53.49;100140.56;8285004;28;20238;-62
2022/03/19 04:41:37;;;;;;;41.77;32.97;;;;;;;8.51;53.25;100144.00;8285410;28;20234;-62
2022/03/19 04:45:41;;;;;;;41.97;32.50;;;;;;;8.47;53.32;100131.97;8285276;28;20237;-62
2022/03/19 04:49:45;;;;;;;40.73;31.57;;;;;;;8.57;53.04;100131.09;8285580;28;20233;-62
2022/03/19 04:53:50;;;;;;;35.73;30.70;;;;;;;8.36;53.38;100140.56;8285088;28;20555;-62
2022/03/19 04:57:54;;;;;;;36.23;31.33;;;;;;;8.36;53.14;100143.13;8307150;28;20300;-62
2022/03/19 05:01:56;;;;;;;38.10;30.67;;;;;;;8.37;52.98;100136.25;8317484;28;20229;-62
2022/03/19 05:06:01;;;;;;;38.13;30.43;;;;;;;8.38;52.75;100150.88;8316503;28;20295;-62
2022/03/19 05:14:27;;;;;;;38.77;29.37;;;;;;;8.30;52.80;100144.84;8284317;28;20272;-62
2022/03/19 05:18:29;;;;;;;36.27;28.47;;;;;;;8.26;52.61;100149.16;8283945;28;20238;-62
2022/03/19 05:22:34;;;;;;;36.83;29.67;;;;;;;8.13;52.74;100147.41;8283799;28;20233;-63
2022/03/19 05:26:37;;;;;;;35.93;28.60;;;;;;;8.14;52.52;100146.56;8284071;28;20237;-62
2022/03/19 05:30:40;;;;;;;37.67;28.20;;;;;;;8.10;52.53;100150.03;8284479;28;20475;-62
2022/03/19 05:34:43;;;;;;;35.77;28.30;;;;;;;8.15;52.41;100148.31;8284057;28;20244;-62
2022/03/19 05:38:48;;;;;;;38.77;27.80;;;;;;;8.22;52.11;100150.00;8283596;28;20237;-62
2022/03/19 05:42:51;;;;;;;32.80;26.87;;;;;;;8.30;51.75;100148.31;8283638;28;20256;-62
2022/03/19 05:46:54;;;;;;;36.13;27.60;;;;;;;8.27;52.33;100150.88;8283774;28;20237;-63
2022/03/19 05:50:58;;;;;;;37.67;29.37;;;;;;;8.48;52.12;100142.28;8284011;28;20229;-62
2022/03/19 05:55:06;;;;;;;38.60;30.67;;;;;;;8.52;51.95;100143.16;8302712;28;20295;-62
2022/03/19 05:59:09;;;;;;;37.03;30.60;;;;;;;8.84;51.39;100137.91;8316498;28;20238;-62
2022/03/19 06:03:12;;;;;;;36.23;29.90;;;;;;;9.05;50.94;100141.31;8315861;28;20296;-62
2022/03/19 06:07:15;;;;;;;39.07;32.30;;;;;;;8.95;51.16;100137.91;8315620;28;20254;-62
2022/03/19 06:11:20;;;;;;;35.77;30.00;;;;;;;8.99;50.98;100140.47;8305683;28;20240;-62
2022/03/19 06:15:23;;;;;;;38.90;28.97;;;;;;;9.14;51.47;100134.38;8298405;28;20425;-62
2022/03/19 06:19:26;;;;;;;38.30;31.27;;;;;;;9.15;51.07;100136.09;8297190;28;20224;-62
2022/03/19 06:23:30;;;;;;;43.03;33.47;;;;;;;9.35;50.47;100130.84;8296050;28;20240;-62
2022/03/19 06:27:34;;;;;;;41.40;34.17;;;;;;;9.62;49.54;100125.53;8296284;28;20232;-62
2022/03/19 06:31:37;;;;;;;43.40;35.00;;;;;;;9.82;49.16;100123.66;8297797;28;20232;-62
2022/03/19 06:40:06;;;;;;;47.20;37.50;;;;;;;10.03;49.07;100116.59;8291693;28;20237;-62
2022/03/19 06:44:10;;;;;;;45.77;39.23;;;;;;;10.10;48.88;100121.72;8289463;28;20225;-62
2022/03/19 06:48:14;;;;;;;45.23;38.83;;;;;;;10.11;49.00;100117.41;8281896;28;20420;-62
2022/03/19 06:52:16;;;;;;;46.93;41.10;;;;;;;10.54;47.76;100117.91;8287689;28;20236;-62
2022/03/19 06:56:20;;;;;;;50.23;41.60;;;;;;;10.69;47.64;100109.13;8296393;28;20224;-62
2022/03/19 07:00:30;;;;;;;51.97;42.23;;;;;;;10.96;46.80;100101.91;8296298;28;20241;-62
2022/03/19 07:04:33;;;;;;;45.17;39.97;;;;;;;11.62;45.93;100101.03;8297424;28;20220;-62
2022/03/19 07:08:40;;;;;;;47.57;42.23;;;;;;;11.38;45.60;100088.41;8285465;28;20241;-62
2022/03/19 07:12:43;;;;;;;51.50;41.53;;;;;;;11.55;45.42;100089.88;8285822;28;20229;-62
2022/03/19 07:16:48;;;;;;;46.53;39.03;;;;;;;11.67;45.01;100090.59;8282371;28;20240;-66
2022/03/19 07:20:51;;;;;;;48.83;40.13;;;;;;;12.32;43.96;100086.09;8282591;28;20241;-61
2022/03/19 07:24:54;;;;;;;47.77;38.27;;;;;;;12.56;42.56;100080.47;8287971;28;20245;-61
2022/03/19 07:28:57;;;;;;;45.80;37.57;;;;;;;12.84;41.53;100073.84;8299176;28;20424;-62
2022/03/19 07:33:01;;;;;;;44.57;38.23;;;;;;;12.92;41.29;100073.69;8303096;28;20233;-62
2022/03/19 07:37:05;;;;;;;44.20;36.40;;;;;;;13.11;41.05;100077.63;8306532;28;20241;-63
2022/03/19 07:45:30;;;;;;;40.93;33.77;;;;;;;13.25;38.96;100053.94;8303048;28;20422;-62
2022/03/19 07:49:34;;;;;;;38.50;32.00;;;;;;;13.88;37.49;100049.91;8300424;28;20229;-62
2022/03/19 07:53:38;;;;;;;36.33;31.10;;;;;;;13.75;37.27;100045.03;8298452;28;20427;-62
2022/03/19 07:57:41;;;;;;;32.13;28.57;;;;;;;13.88;35.93;100036.88;8311317;28;20423;-62
2022/03/19 08:01:43;;;;;;;36.13;27.63;;;;;;;14.04;35.48;100037.31;8319356;28;20232;-62
2022/03/19 08:05:48;;;;;;;28.07;24.90;;;;;;;14.73;34.38;100018.16;8314618;28;20239;-62
2022/03/19 08:09:51;;;;;;;32.03;25.77;;;;;;;15.19;34.31;100019.38;8286241;28;20256;-62
2022/03/19 08:13:54;;;;;;;29.27;23.60;;;;;;;15.42;32.92;100027.38;8286778;28;20237;-62
2022/03/19 08:17:57;;;;;;;31.97;25.30;;;;;;;15.27;33.87;100032.19;8286762;28;20586;-62
2022/03/19 08:22:02;;;;;;;31.37;25.10;;;;;;;15.61;33.31;100022.41;8286181;28;20229;-62
2022/03/19 08:26:05;;;;;;;26.67;23.40;;;;;;;15.82;33.10;100009.56;8285968;28;20233;-62
2022/03/19 08:30:09;;;;;;;22.63;19.57;;;;;;;15.25;32.55;100021.81;8285904;28;20240;-62
2022/03/19 08:34:12;;;;;;;23.97;18.57;;;;;;;15.59;31.93;100021.63;8285509;28;20234;-62
2022/03/19 08:42:36;;;;;;;21.70;16.53;;;;;;;15.51;31.61;100009.69;8285175;28;20429;-63
2022/03/19 08:46:39;;;;;;;19.10;14.13;;;;;;;15.57;31.83;100005.16;8307277;28;20232;-63
2022/03/19 08:50:42;;;;;;;21.73;15.03;;;;;;;15.94;31.08;99997.88;8285437;28;20244;-62
2022/03/19 08:54:46;;;;;;;19.87;16.00;;;;;;;16.26;31.37;99996.75;8285218;28;20240;-63
2022/03/19 08:58:49;;;;;;;21.20;16.83;;;;;;;15.32;31.19;99985.94;8285017;28;20238;-63
2022/03/19 09:02:52;;;;;;;22.77;16.77;;;;;;;16.19;31.19;99976.97;8295750;28;20232;-62
2022/03/19 09:06:55;;;;;;;20.53;14.70;;;;;;;15.66;31.02;99974.41;8317061;28;20420;-62
2022/03/19 09:10:59;;;;;;;16.50;13.33;;;;;;;16.36;31.14;99965.91;8316908;28;20233;-63
2022/03/19 09:15:03;;;;;;;19.30;13.30;;;;;;;16.55;31.33;99969.53;8317025;28;20229;-62
2022/03/19 09:19:05;;;;;;;17.97;12.70;;;;;;;16.63;31.00;99966.63;8317312;28;20245;-62
2022/03/19 09:23:09;;;;;;;16.77;12.37;;;;;;;16.30;31.10;99963.53;8316750;28;20248;-62
2022/03/19 09:27:14;;;;;;;14.73;11.93;;;;;;;16.24;30.24;99967.19;8316426;28;20229;-62
2022/03/19 09:31:17;;;;;;;15.87;11.50;;;;;;;16.55;30.94;99961.69;8316786;28;20224;-62
2022/03/19 09:35:20;;;;;;;15.03;11.60;;;;;;;14.45;32.94;99954.56;8311234;28;20225;-62
2022/03/19 09:39:23;;;;;;;14.97;9.97;;;;;;;15.88;31.26;99957.13;8285727;28;20246;-61
2022/03/19 09:43:28;;;;;;;12.03;8.43;;;;;;;16.79;29.58;99952.06;8283506;28;20234;-62
2022/03/19 09:47:31;;;;;;;10.30;7.33;;;;;;;17.79;28.56;99939.34;8282571;28;20240;-63
2022/03/19 09:51:37;;;;;;;12.50;8.47;;;;;;;14.91;29.99;99939.34;8283511;28;20240;-62
2022/03/19 09:55:41;;;;;;;11.20;7.60;;;;;;;16.11;28.30;99916.28;8282890;28;20240;-62
2022/03/19 09:59:45;;;;;;;11.37;7.60;;;;;;;15.63;29.02;99908.31;8282872;28;20243;-62
2022/03/19 10:03:49;;;;;;;13.97;7.83;;;;;;;14.23;32.55;99907.41;8301263;28;20233;-62
2022/03/19 10:12:15;;;;;;;9.03;6.47;;;;;;;16.52;30.36;99887.72;8309852;28;20240;-62
2022/03/19 10:16:23;;;;;;;10.93;6.57;;;;;;;16.13;29.34;99890.94;8315306;28;20237;-62
2022/03/19 10:20:27;;;;;;;9.47;6.27;;;;;;;16.76;27.83;99888.56;8315312;28;20320;-62
2022/03/19 10:24:30;;;;;;;8.37;5.50;;;;;;;15.98;29.03;99885.34;8315218;28;20259;-62
2022/03/19 10:28:35;;;;;;;9.60;6.47;;;;;;;15.81;29.38;99867.66;8314251;28;20237;-62
2022/03/19 10:32:40;;;;;;;10.73;6.10;;;;;;;16.57;29.03;99860.47;8314690;28;20236;-62
2022/03/19 10:36:44;;;;;;;10.67;6.70;;;;;;;16.88;28.01;99859.28;8311019;28;20228;-62
2022/03/19 10:40:48;;;;;;;9.37;6.40;;;;;;;17.46;27.69;99848.19;8280838;28;20237;-63
2022/03/19 10:44:52;;;;;;;9.70;6.70;;;;;;;16.75;27.91;99853.69;8280705;28;20283;-62
2022/03/19 10:49:00;;;;;;;8.57;5.87;;;;;;;17.58;26.32;99850.28;8288053;28;20267;-62
2022/03/19 10:53:03;;;;;;;9.40;6.43;;;;;;;16.96;27.24;99838.94;8313169;28;20228;-62
2022/03/19 10:57:06;;;;;;;17.60;12.57;;;;;;;16.96;30.96;99825.84;8293997;28;20236;-62
2022/03/19 11:01:11;;;;;;;16.13;8.77;;;;;;;17.94;40.94;99831.25;8288502;28;20234;-62
2022/03/19 11:05:18;;;;;;;10.43;5.80;;;;;;;18.08;31.37;99811.44;8312448;28;20228;-63
2022/03/19 11:09:24;;;;;;;9.67;5.23;;;;;;;18.47;28.38;99813.13;8314670;28;20232;-63
2022/03/19 11:13:30;;;;;;;7.50;4.33;;;;;;;17.79;23.25;99792.63;8299750;28;20236;-61
2022/03/19 11:17:33;;;;;;;8.97;5.07;;;;;;;17.46;23.72;99784.47;8320512;28;20554;-62
2022/03/19 11:21:38;;;;;;;6.60;4.63;;;;;;;17.50;23.50;99773.81;8314843;28;20422;-62
2022/03/19 11:25:54;;;;;;;7.17;4.00;;;;;;;16.97;21.72;99753.41;8317379;28;20233;-62
2022/03/19 11:29:58;;;;;;;7.83;4.23;;;;;;;17.16;21.91;99756.94;8314436;28;20233;-62
2022/03/19 11:34:15;;;;;;;5.10;3.50;;;;;;;17.37;22.13;99749.91;8312637;28;20235;-62
2022/03/19 11:38:20;;;;;;;6.50;4.10;;;;;;;17.53;22.02;99731.75;8306488;28;20228;-62
2022/03/19 11:42:29;;;;;;;5.10;4.20;;;;;;;16.90;22.16;99737.09;8290752;28;20240;-62
2022/03/19 11:46:55;;;;;;;7.13;3.97;;;;;;;17.68;21.63;99722.34;8301035;28;20222;-62
2022/03/19 11:51:13;;;;;;;6.97;4.43;;;;;;;17.17;21.92;99716.75;8306626;28;20245;-62
2022/03/19 11:55:20;;;;;;;8.37;4.43;;;;;;;16.93;21.75;99715.22;8313886;28;20225;-62
2022/03/19 11:59:46;;;;;;;7.20;4.60;;;;;;;17.58;21.99;99715.84;8289375;28;20241;-63
2022/03/19 12:04:11;;;;;;;8.33;4.40;;;;;;;17.64;21.17;99699.81;8302231;28;20219;-62
2022/03/19 12:08:15;;;;;;;5.70;3.90;;;;;;;16.76;22.53;99703.66;8301220;28;20244;-62
2022/03/19 12:12:26;;;;;;;8.60;4.40;;;;;;;17.14;21.16;99690.72;8301952;28;20547;-62
2022/03/19 12:16:40;;;;;;;11.07;4.90;;;;;;;17.25;21.88;99677.16;8301844;28;20236;-62
2022/03/19 12:20:43;;;;;;;8.60;4.50;;;;;;;17.14;22.68;99671.53;8302527;28;20561;-62
2022/03/19 12:24:49;;;;;;;7.20;4.73;;;;;;;16.69;23.55;99667.34;8285836;28;20237;-62
2022/03/19 12:29:02;;;;;;;8.43;5.27;;;;;;;15.02;25.69;99670.28;8304848;28;20575;-62
2022/03/19 12:33:05;;;;;;;10.13;5.03;;;;;;;14.73;26.34;99674.75;8315391;28;20422;-61
2022/03/19 12:37:08;;;;;;;10.87;5.53;;;;;;;12.90;29.05;99717.47;8301688;28;20229;-62
2022/03/19 12:41:31;;;;;;;23.37;4.60;;;;;;;9.76;45.32;99746.78;8301918;28;20233;-61
2022/03/19 12:45:55;;;;;;;5.77;3.27;;;;;;;9.23;50.40;99753.44;8299904;28;20233;-61
2022/03/19 12:49:58;;;;;;;5.47;3.20;;;;;;;8.58;51.88;99755.75;8317303;28;20236;-61
2022/03/19 12:54:01;;;;;;;4.80;3.53;;;;;;;8.46;54.41;99748.94;8317974;28;20240;-62
2022/03/19 12:58:05;;;;;;;5.97;3.30;;;;;;;8.73;52.65;99742.72;8302425;28;20327;-61
2022/03/19 13:02:09;;;;;;;6.07;4.30;;;;;;;9.54;49.43;99741.03;8300805;28;20233;-61
2022/03/19 13:06:14;;;;;;;6.00;4.83;;;;;;;9.84;48.57;99736.34;8300040;28;20360;-61
2022/03/19 13:10:17;;;;;;;7.00;4.00;;;;;;;10.62;48.30;99721.41;8302183;28;20399;-61
2022/03/19 13:14:24;;;;;;;11.63;5.90;;;;;;;10.04;47.21;99728.31;8301435;28;20241;-62
2022/03/19 13:18:29;;;;;;;8.83;5.57;;;;;;;10.31;48.16;99716.72;8288614;28;20233;-62
2022/03/19 13:22:35;;;;;;;8.40;5.87;;;;;;;9.91;48.77;99721.59;8315752;28;20239;-62
2022/03/19 13:26:38;;;;;;;9.23;6.10;;;;;;;10.41;47.89;99712.25;8310650;28;20548;-61
2022/03/19 13:30:44;;;;;;;9.87;5.80;;;;;;;10.38;47.15;99707.13;8294680;28;20241;-64
2022/03/19 13:34:50;;;;;;;9.50;6.33;;;;;;;10.90;46.50;99695.03;8283621;28;20237;-64
2022/03/19 13:38:54;;;;;;;7.23;5.43;;;;;;;10.21;46.91;99683.22;8283674;28;20405;-64
2022/03/19 13:42:56;;;;;;;8.60;5.40;;;;;;;10.83;45.79;99676.13;8283210;28;20233;-64
2022/03/19 13:47:10;;;;;;;11.47;5.87;;;;;;;10.55;45.55;99681.81;8283366;28;20225;-64
2022/03/19 13:51:16;;;;;;;14.67;6.33;;;;;;;10.74;45.03;99681.50;8283579;28;20230;-64
2022/03/19 13:55:35;;;;;;;13.10;6.80;;;;;;;10.74;47.06;99674.56;8282981;28;20229;-64
2022/03/19 13:59:38;;;;;;;3.53;2.93;;;;;;;9.88;49.38;99678.50;8282706;28;20423;-63
2022/03/19 14:03:41;;;;;;;4.10;3.17;;;;;;;9.69;51.69;99693.44;8300231;28;20238;-64
2022/03/19 14:07:46;;;;;;;4.77;3.30;;;;;;;10.22;49.95;99664.19;8315568;28;20237;-64
2022/03/19 14:11:49;;;;;;;3.70;2.87;;;;;;;10.69;49.03;99667.75;8315661;28;20241;-64
2022/03/19 14:15:54;;;;;;;3.50;2.60;;;;;;;10.85;48.22;99655.38;8315247;28;20229;-64
2022/03/19 14:19:57;;;;;;;3.10;2.80;;;;;;;10.60;48.49;99645.44;8315101;28;20238;-64
2022/03/19 14:24:01;;;;;;;3.97;2.80;;;;;;;10.91;46.89;99637.97;8315462;28;20224;-64
2022/03/19 14:28:06;;;;;;;4.13;3.03;;;;;;;11.24;45.76;99629.56;8314645;28;20236;-64
2022/03/19 14:32:11;;;;;;;6.07;4.20;;;;;;;11.18;46.40;99624.50;8314356;28;20233;-64
2022/03/19 14:36:14;;;;;;;6.77;5.30;;;;;;;11.88;44.82;99628.16;8314525;28;20228;-64
2022/03/19 14:40:18;;;;;;;6.83;5.93;;;;;;;11.84;44.65;99617.88;8314781;28;20591;-64
2022/03/19 14:44:21;;;;;;;7.03;6.00;;;;;;;11.18;45.22;99614.16;8314820;28;20233;-64
2022/03/19 14:48:26;;;;;;;7.67;6.23;;;;;;;11.66;44.77;99614.81;8314693;28;20240;-64
2022/03/19 14:52:29;;;;;;;7.63;6.50;;;;;;;11.67;44.99;99618.25;8314719;28;20236;-64
2022/03/19 14:56:36;;;;;;;11.60;8.97;;;;;;;11.33;45.06;99608.63;8314238;28;20228;-65
2022/03/19 15:00:39;;;;;;;10.80;9.70;;;;;;;10.98;45.68;99605.00;8314469;28;20243;-64
2022/03/19 15:04:42;;;;;;;13.07;10.53;;;;;;;10.93;45.96;99593.91;8314334;28;20256;-64
2022/03/19 15:08:50;;;;;;;13.87;10.93;;;;;;;11.21;45.65;99599.34;8313988;28;20574;-64
2022/03/19 15:12:55;;;;;;;13.50;12.10;;;;;;;10.86;45.88;99584.53;8314393;28;20232;-64
2022/03/19 15:16:58;;;;;;;16.67;13.47;;;;;;;10.88;46.19;99583.59;8314153;28;20232;-64
2022/03/19 15:21:03;;;;;;;18.73;15.33;;;;;;;10.85;46.18;99570.72;8313903;28;20243;-64
2022/03/19 15:25:07;;;;;;;19.90;17.73;;;;;;;10.88;46.15;99569.78;8314109;28;20229;-64
2022/03/19 15:29:11;;;;;;;21.47;19.20;;;;;;;11.07;44.73;99563.34;8314407;28;20400;-66
2022/03/19 15:33:15;;;;;;;24.43;21.83;;;;;;;11.14;44.62;99558.91;8314113;28;20232;-65
2022/03/19 15:37:18;;;;;;;29.73;22.73;;;;;;;10.49;45.80;99560.19;8313923;28;20235;-65
2022/03/19 15:41:21;;;;;;;25.63;21.63;;;;;;;11.03;44.81;99560.88;8314462;28;20237;-64
2022/03/19 15:45:26;;;;;;;25.37;22.50;;;;;;;11.00;44.97;99550.53;8319447;28;20420;-64
2022/03/19 15:49:29;;;;;;;24.30;21.70;;;;;;;10.95;44.50;99555.84;8320234;28;20232;-64
2022/03/19 15:53:32;;;;;;;24.33;21.73;;;;;;;11.01;44.43;99560.88;8319195;28;20233;-65
2022/03/19 15:57:35;;;;;;;24.37;21.60;;;;;;;10.78;44.74;99542.38;8319710;28;20310;-64
2022/03/19 16:01:40;;;;;;;26.27;22.03;;;;;;;10.30;45.70;99543.22;8319530;28;20236;-65
2022/03/19 16:05:44;;;;;;;24.80;22.20;;;;;;;10.35;45.51;99534.50;8319153;28;20236;-64
2022/03/19 16:09:50;;;;;;;26.30;22.40;;;;;;;10.18;45.50;99531.34;8318967;28;20294;-64
2022/03/19 16:13:53;;;;;;;24.70;22.03;;;;;;;10.38;45.25;99538.81;8319097;28;20239;-64
2022/03/19 16:17:57;;;;;;;26.90;22.70;;;;;;;10.54;44.65;99539.34;8318940;28;20233;-64
2022/03/19 16:22:01;;;;;;;26.67;22.33;;;;;;;10.63;44.84;99530.56;8318645;28;20236;-64
2022/03/19 16:26:04;;;;;;;28.43;22.70;;;;;;;10.59;44.65;99528.91;8318634;28;20239;-64
2022/03/19 16:30:08;;;;;;;24.40;21.90;;;;;;;10.64;44.63;99527.06;8318517;28;20258;-64
2022/03/19 16:34:13;;;;;;;26.83;23.53;;;;;;;10.57;44.48;99524.59;8318760;28;20229;-64
2022/03/19 16:38:16;;;;;;;26.73;23.23;;;;;;;10.49;44.71;99523.03;8318083;28;20225;-64
2022/03/19 16:42:19;;;;;;;24.90;22.40;;;;;;;10.62;44.38;99524.50;8318112;28;20291;-64
2022/03/19 16:46:24;;;;;;;24.90;22.00;;;;;;;10.74;44.23;99523.44;8318065;28;20229;-64
2022/03/19 16:50:29;;;;;;;27.77;22.20;;;;;;;10.84;43.53;99517.16;8318183;28;20430;-64
2022/03/19 16:54:32;;;;;;;25.40;22.77;;;;;;;10.48;44.45;99514.41;8316997;28;20228;-65
2022/03/19 16:58:35;;;;;;;24.63;22.03;;;;;;;10.35;44.39;99521.56;8317443;28;20237;-64
2022/03/19 17:02:38;;;;;;;27.47;22.80;;;;;;;10.42;44.80;99521.47;8317541;28;20244;-65
2022/03/19 17:06:43;;;;;;;29.47;22.60;;;;;;;10.58;44.08;99517.69;8317818;28;20240;-64
2022/03/19 17:10:46;;;;;;;27.50;23.27;;;;;;;10.64;43.26;99522.78;8317074;28;20263;-64
2022/03/19 17:14:49;;;;;;;29.87;22.20;;;;;;;10.40;43.66;99518.06;8317647;28;20260;-64
2022/03/19 17:18:52;;;;;;;26.00;20.83;;;;;;;10.23;43.41;99513.16;8317116;28;20423;-64
2022/03/19 17:22:56;;;;;;;23.17;20.57;;;;;;;10.47;42.35;99517.03;8317526;28;20233;-64
2022/03/19 17:27:00;;;;;;;23.70;21.03;;;;;;;10.09;43.29;99513.38;8316688;28;20236;-64
2022/03/19 17:31:03;;;;;;;24.80;20.80;;;;;;;10.17;42.39;99521.88;8317002;28;20243;-64
2022/03/19 17:35:07;;;;;;;26.47;21.37;;;;;;;10.34;42.30;99517.28;8316745;28;20240;-64
2022/03/19 17:39:11;;;;;;;27.03;21.60;;;;;;;10.28;41.85;99514.78;8316257;28;20239;-64
2022/03/19 17:43:14;;;;;;;24.50;20.67;;;;;;;10.43;41.46;99515.41;8316184;28;20244;-64
2022/03/19 17:47:19;;;;;;;24.30;21.70;;;;;;;10.32;41.57;99516.47;8316101;28;20233;-64
2022/03/19 17:51:23;;;;;;;25.37;22.50;;;;;;;10.26;41.80;99510.50;8316030;28;20241;-64
2022/03/19 17:55:27;;;;;;;24.97;21.63;;;;;;;10.16;41.47;99510.66;8315899;28;20232;-64
2022/03/19 17:59:30;;;;;;;24.97;22.00;;;;;;;10.12;41.89;99513.34;8315520;28;20229;-64
2022/03/19 18:03:33;;;;;;;26.07;22.20;;;;;;;10.09;41.77;99505.63;8314820;28;20228;-64
2022/03/19 18:07:37;;;;;;;24.47;20.93;;;;;;;10.13;41.07;99515.06;8314938;28;20233;-64
2022/03/19 18:11:42;;;;;;;38.13;30.37;;;;;;;10.26;40.75;99507.91;8315151;28;20574;-64
2022/03/19 18:15:45;;;;;;;24.17;20.53;;;;;;;10.12;40.94;99501.25;8315046;28;20235;-64
2022/03/19 18:19:48;;;;;;;25.23;20.30;;;;;;;10.40;41.05;99505.13;8314967;28;20232;-64
2022/03/19 18:23:51;;;;;;;25.60;22.90;;;;;;;10.19;40.52;99499.41;8315187;28;20539;-64
2022/03/19 18:27:56;;;;;;;24.60;20.63;;;;;;;10.17;40.12;99506.34;8315156;28;20519;-64
2022/03/19 18:31:59;;;;;;;21.53;19.07;;;;;;;10.10;40.17;99500.41;8315001;28;20232;-64
2022/03/19 18:36:06;;;;;;;22.87;20.23;;;;;;;9.77;40.07;99494.09;8315155;28;20239;-64
2022/03/19 18:40:10;;;;;;;31.63;27.87;;;;;;;10.06;39.23;99485.84;8315253;28;20228;-64
2022/03/19 18:44:15;;;;;;;37.00;29.20;;;;;;;10.11;38.66;99488.31;8314977;28;20426;-64
2022/03/19 18:48:19;;;;;;;26.13;22.93;;;;;;;10.03;38.06;99482.44;8314845;28;20232;-65
2022/03/19 18:52:22;;;;;;;28.83;21.70;;;;;;;9.92;38.12;99480.06;8314742;28;20237;-65
2022/03/19 18:56:26;;;;;;;22.43;18.00;;;;;;;9.69;37.79;99483.88;8314454;28;20557;-65
2022/03/19 19:00:31;;;;;;;20.57;17.63;;;;;;;9.73;36.78;99480.38;8314399;28;20232;-65
2022/03/19 19:04:34;;;;;;;24.13;18.63;;;;;;;10.02;36.37;99472.97;8313792;28;20275;-65
2022/03/19 19:08:37;;;;;;;23.33;20.53;;;;;;;10.13;35.93;99478.81;8313987;28;20236;-65
2022/03/19 19:12:40;;;;;;;22.43;18.00;;;;;;;9.96;35.22;99472.19;8313802;28;20244;-64
2022/03/19 19:16:44;;;;;;;24.57;16.87;;;;;;;10.21;34.75;99474.34;8315043;28;20236;-64
2022/03/19 19:20:49;;;;;;;18.20;15.73;;;;;;;9.77;34.20;99457.88;8320742;28;20232;-64